createdAt,value
2018-08-18T00:00:26.372Z,20.00
2018-08-18T00:01:26.367Z,20.00
2018-08-18T00:02:26.398Z,20.00
2018-08-18T00:03:26.538Z,20.00
2018-08-18T00:04:26.400Z,20.00
2018-08-18T00:05:26.413Z,20.00
2018-08-18T00:06:26.428Z,20.00
2018-08-18T00:07:26.442Z,20.00
2018-08-18T00:08:26.546Z,20.00
2018-08-18T00:09:26.459Z,20.00
2018-08-18T00:10:26.472Z,24.00
2018-08-18T00:11:26.489Z,20.00
2018-08-18T00:12:26.478Z,20.00
2018-08-18T00:13:26.662Z,24.00
2018-08-18T00:14:26.522Z,20.00
2018-08-18T00:15:26.539Z,20.00
2018-08-18T00:16:26.550Z,20.00
2018-08-18T00:17:26.561Z,20.00
2018-08-18T00:18:26.673Z,20.00
2018-08-18T00:19:26.586Z,20.00
2018-08-18T00:20:26.591Z,20.00
2018-08-18T00:21:26.607Z,20.00
2018-08-18T00:22:26.620Z,24.00
2018-08-18T00:23:26.709Z,20.00
2018-08-18T00:24:26.644Z,20.00
2018-08-18T00:25:26.685Z,20.00
2018-08-18T00:26:26.665Z,20.00
2018-08-18T00:27:26.677Z,24.00
2018-08-18T00:28:26.788Z,20.00
2018-08-18T00:29:26.699Z,24.00
2018-08-18T00:30:26.716Z,24.00
2018-08-18T00:31:26.724Z,24.00
2018-08-18T00:32:26.737Z,24.00
2018-08-18T00:33:26.746Z,24.00
2018-08-18T00:34:26.993Z,24.00
2018-08-18T00:35:26.768Z,24.00
2018-08-18T00:36:26.783Z,20.00
2018-08-18T00:37:26.811Z,20.00
2018-08-18T00:38:26.806Z,20.00
2018-08-18T00:39:26.978Z,20.00
2018-08-18T00:40:26.833Z,20.00
2018-08-18T00:41:26.847Z,20.00
2018-08-18T00:42:26.844Z,20.00
2018-08-18T00:43:26.868Z,20.00
2018-08-18T00:44:27.029Z,20.00
2018-08-18T00:45:26.891Z,20.00
2018-08-18T00:46:26.904Z,20.00
2018-08-18T00:47:26.917Z,20.00
2018-08-18T00:48:26.929Z,20.00
2018-08-18T00:49:27.039Z,20.00
2018-08-18T00:50:26.955Z,24.00
2018-08-18T00:51:26.958Z,20.00
2018-08-18T00:52:26.960Z,20.00
2018-08-18T00:53:26.991Z,20.00
2018-08-18T00:54:27.158Z,20.00
2018-08-18T00:55:27.016Z,20.00
2018-08-18T00:56:27.020Z,20.00
2018-08-18T00:57:27.042Z,20.00
2018-08-18T00:58:27.046Z,20.00
2018-08-18T00:59:27.208Z,24.00
2018-08-18T01:00:27.065Z,20.00
2018-08-18T01:01:27.081Z,24.00
2018-08-18T01:02:27.090Z,24.00
2018-08-18T01:03:27.110Z,20.00
2018-08-18T01:04:27.807Z,24.00
2018-08-18T01:05:27.136Z,20.00
2018-08-18T01:06:27.144Z,24.00
2018-08-18T01:07:27.155Z,20.00
2018-08-18T01:08:27.147Z,24.00
2018-08-18T01:09:27.333Z,24.00
2018-08-18T01:10:27.192Z,24.00
2018-08-18T01:11:27.272Z,24.00
2018-08-18T01:12:27.342Z,20.00
2018-08-18T01:13:27.224Z,20.00
2018-08-18T01:14:27.420Z,24.00
2018-08-18T01:15:27.259Z,20.00
2018-08-18T01:16:27.245Z,20.00
2018-08-18T01:17:27.270Z,20.00
2018-08-18T01:18:27.272Z,20.00
2018-08-18T01:19:27.402Z,20.00
2018-08-18T01:20:27.318Z,20.00
2018-08-18T01:21:27.393Z,20.00
2018-08-18T01:22:27.340Z,20.00
2018-08-18T01:23:27.328Z,20.00
2018-08-18T01:24:27.507Z,20.00
2018-08-18T01:25:27.352Z,20.00
2018-08-18T01:26:27.383Z,20.00
2018-08-18T01:27:27.397Z,20.00
2018-08-18T01:28:27.403Z,20.00
2018-08-18T01:29:27.547Z,20.00
2018-08-18T01:30:27.434Z,20.00
2018-08-18T01:31:27.444Z,20.00
2018-08-18T01:32:27.453Z,24.00
2018-08-18T01:33:27.465Z,20.00
2018-08-18T01:34:27.664Z,20.00
2018-08-18T01:35:27.513Z,20.00
2018-08-18T01:36:27.478Z,20.00
2018-08-18T01:37:27.499Z,20.00
2018-08-18T01:38:27.523Z,24.00
2018-08-18T01:39:27.637Z,24.00
2018-08-18T01:40:27.551Z,24.00
2018-08-18T01:41:27.567Z,24.00
2018-08-18T01:42:27.570Z,24.00
2018-08-18T01:43:27.565Z,24.00
2018-08-18T01:44:27.693Z,24.00
2018-08-18T01:45:27.589Z,24.00
2018-08-18T01:46:27.624Z,24.00
2018-08-18T01:47:27.633Z,24.00
2018-08-18T01:48:27.629Z,24.00
2018-08-18T01:49:27.787Z,24.00
2018-08-18T01:50:27.667Z,24.00
2018-08-18T01:51:27.682Z,24.00
2018-08-18T01:52:27.685Z,24.00
2018-08-18T01:53:27.700Z,24.00
2018-08-18T01:54:27.718Z,24.00
2018-08-18T01:55:27.825Z,20.00
2018-08-18T01:56:27.715Z,20.00
2018-08-18T01:57:27.747Z,20.00
2018-08-18T01:58:27.743Z,20.00
2018-08-18T01:59:27.781Z,24.00
2018-08-18T02:00:27.939Z,24.00
2018-08-18T02:01:27.798Z,20.00
2018-08-18T02:02:27.809Z,20.00
2018-08-18T02:03:27.815Z,20.00
2018-08-18T02:04:27.829Z,20.00
2018-08-18T02:05:27.998Z,20.00
2018-08-18T02:06:27.855Z,20.00
2018-08-18T02:07:27.849Z,20.00
2018-08-18T02:08:27.884Z,20.00
2018-08-18T02:09:27.896Z,20.00
2018-08-18T02:10:28.049Z,20.00
2018-08-18T02:11:27.895Z,20.00
2018-08-18T02:12:27.907Z,20.00
2018-08-18T02:13:27.936Z,20.00
2018-08-18T02:14:28.493Z,20.00
2018-08-18T02:15:28.064Z,20.00
2018-08-18T02:16:27.977Z,20.00
2018-08-18T02:17:27.982Z,20.00
2018-08-18T02:18:28.018Z,20.00
2018-08-18T02:19:28.011Z,20.00
2018-08-18T02:20:28.124Z,20.00
2018-08-18T02:21:28.032Z,20.00
2018-08-18T02:22:28.046Z,20.00
2018-08-18T02:23:28.058Z,20.00
2018-08-18T02:24:28.066Z,20.00
2018-08-18T02:25:28.177Z,20.00
2018-08-18T02:26:28.071Z,20.00
2018-08-18T02:27:28.105Z,20.00
2018-08-18T02:28:28.114Z,20.00
2018-08-18T02:29:28.126Z,20.00
2018-08-18T02:30:28.291Z,20.00
2018-08-18T02:31:28.155Z,20.00
2018-08-18T02:32:28.165Z,20.00
2018-08-18T02:33:28.178Z,20.00
2018-08-18T02:34:28.185Z,20.00
2018-08-18T02:35:28.346Z,20.00
2018-08-18T02:36:28.207Z,24.00
2018-08-18T02:37:28.217Z,20.00
2018-08-18T02:38:28.232Z,24.00
2018-08-18T02:39:28.243Z,24.00
2018-08-18T02:40:28.385Z,24.00
2018-08-18T02:41:28.272Z,20.00
2018-08-18T02:42:28.287Z,20.00
2018-08-18T02:43:28.289Z,24.00
2018-08-18T02:44:28.308Z,24.00
2018-08-18T02:45:28.421Z,20.00
2018-08-18T02:46:28.329Z,20.00
2018-08-18T02:47:28.321Z,20.00
2018-08-18T02:48:28.360Z,24.00
2018-08-18T02:49:28.363Z,24.00
2018-08-18T02:50:28.528Z,24.00
2018-08-18T02:51:28.386Z,20.00
2018-08-18T02:52:28.401Z,24.00
2018-08-18T02:53:28.416Z,24.00
2018-08-18T02:54:28.426Z,24.00
2018-08-18T02:55:28.534Z,24.00
2018-08-18T02:56:28.444Z,24.00
2018-08-18T02:57:28.456Z,24.00
2018-08-18T02:58:28.470Z,24.00
2018-08-18T02:59:28.481Z,24.00
2018-08-18T03:00:28.638Z,24.00
2018-08-18T03:01:28.503Z,24.00
2018-08-18T03:02:28.498Z,24.00
2018-08-18T03:03:28.525Z,24.00
2018-08-18T03:04:28.538Z,24.00
2018-08-18T03:05:28.651Z,24.00
2018-08-18T03:06:28.543Z,24.00
2018-08-18T03:07:28.573Z,24.00
2018-08-18T03:08:28.593Z,24.00
2018-08-18T03:09:28.601Z,24.00
2018-08-18T03:10:28.711Z,24.00
2018-08-18T03:11:28.623Z,24.00
2018-08-18T03:12:28.632Z,24.00
2018-08-18T03:13:28.648Z,24.00
2018-08-18T03:14:28.656Z,20.00
2018-08-18T03:15:28.670Z,20.00
2018-08-18T03:16:28.934Z,20.00
2018-08-18T03:17:28.704Z,20.00
2018-08-18T03:18:28.709Z,20.00
2018-08-18T03:19:28.693Z,20.00
2018-08-18T03:20:28.725Z,20.00
2018-08-18T03:21:28.841Z,20.00
2018-08-18T03:22:28.729Z,20.00
2018-08-18T03:23:28.763Z,20.00
2018-08-18T03:24:28.777Z,20.00
2018-08-18T03:25:28.785Z,20.00
2018-08-18T03:26:28.900Z,20.00
2018-08-18T03:27:28.814Z,20.00
2018-08-18T03:28:28.818Z,20.00
2018-08-18T03:29:28.832Z,20.00
2018-08-18T03:30:28.851Z,20.00
2018-08-18T03:31:29.014Z,20.00
2018-08-18T03:32:28.875Z,20.00
2018-08-18T03:33:28.883Z,20.00
2018-08-18T03:34:28.876Z,20.00
2018-08-18T03:35:28.907Z,20.00
2018-08-18T03:36:29.013Z,20.00
2018-08-18T03:37:28.929Z,20.00
2018-08-18T03:38:28.936Z,20.00
2018-08-18T03:39:28.959Z,20.00
2018-08-18T03:40:28.942Z,20.00
2018-08-18T03:41:29.129Z,20.00
2018-08-18T03:42:28.987Z,20.00
2018-08-18T03:43:28.992Z,20.00
2018-08-18T03:44:29.006Z,20.00
2018-08-18T03:45:29.016Z,20.00
2018-08-18T03:46:29.185Z,20.00
2018-08-18T03:47:29.043Z,20.00
2018-08-18T03:48:29.056Z,20.00
2018-08-18T03:49:29.066Z,20.00
2018-08-18T03:50:29.081Z,20.00
2018-08-18T03:51:29.191Z,20.00
2018-08-18T03:52:29.137Z,20.00
2018-08-18T03:53:29.296Z,20.00
2018-08-18T03:54:29.124Z,20.00
2018-08-18T03:55:29.141Z,20.00
2018-08-18T03:56:29.306Z,20.00
2018-08-18T03:57:29.163Z,20.00
2018-08-18T03:58:29.173Z,20.00
2018-08-18T03:59:29.182Z,20.00
2018-08-18T04:00:29.192Z,20.00
2018-08-18T04:01:29.319Z,20.00
2018-08-18T04:02:29.229Z,20.00
2018-08-18T04:03:29.235Z,20.00
2018-08-18T04:04:29.240Z,20.00
2018-08-18T04:05:29.253Z,20.00
2018-08-18T04:06:29.357Z,20.00
2018-08-18T04:07:29.281Z,20.00
2018-08-18T04:08:29.296Z,20.00
2018-08-18T04:09:29.284Z,20.00
2018-08-18T04:10:29.315Z,20.00
2018-08-18T04:11:29.424Z,20.00
2018-08-18T04:12:29.339Z,20.00
2018-08-18T04:13:29.346Z,20.00
2018-08-18T04:14:29.342Z,20.00
2018-08-18T04:15:29.368Z,20.00
2018-08-18T04:16:29.467Z,20.00
2018-08-18T04:17:29.399Z,20.00
2018-08-18T04:18:29.402Z,20.00
2018-08-18T04:19:29.406Z,20.00
2018-08-18T04:20:29.433Z,20.00
2018-08-18T04:21:29.572Z,20.00
2018-08-18T04:22:29.459Z,20.00
2018-08-18T04:23:29.470Z,24.00
2018-08-18T04:24:29.459Z,24.00
2018-08-18T04:25:29.693Z,20.00
2018-08-18T04:26:29.603Z,20.00
2018-08-18T04:27:29.512Z,20.00
2018-08-18T04:28:29.526Z,20.00
2018-08-18T04:29:29.534Z,20.00
2018-08-18T04:30:29.548Z,24.00
2018-08-18T04:31:29.660Z,20.00
2018-08-18T04:32:29.575Z,20.00
2018-08-18T04:33:29.585Z,20.00
2018-08-18T04:34:29.599Z,20.00
2018-08-18T04:35:29.607Z,20.00
2018-08-18T04:36:29.719Z,20.00
2018-08-18T04:37:29.634Z,20.00
2018-08-18T04:38:29.645Z,20.00
2018-08-18T04:39:29.651Z,20.00
2018-08-18T04:40:29.667Z,20.00
2018-08-18T04:41:29.660Z,20.00
2018-08-18T04:42:29.790Z,20.00
2018-08-18T04:43:29.705Z,20.00
2018-08-18T04:44:29.739Z,20.00
2018-08-18T04:45:29.727Z,20.00
2018-08-18T04:46:29.742Z,20.00
2018-08-18T04:47:29.856Z,20.00
2018-08-18T04:48:29.757Z,20.00
2018-08-18T04:49:29.767Z,20.00
2018-08-18T04:50:29.868Z,20.00
2018-08-18T04:51:29.800Z,20.00
2018-08-18T04:52:29.908Z,20.00
2018-08-18T04:53:29.818Z,20.00
2018-08-18T04:54:29.830Z,20.00
2018-08-18T04:55:29.845Z,20.00
2018-08-18T04:56:29.858Z,20.00
2018-08-18T04:57:29.971Z,20.00
2018-08-18T04:58:29.881Z,20.00
2018-08-18T04:59:30.062Z,20.00
2018-08-18T05:00:29.901Z,20.00
2018-08-18T05:01:29.913Z,20.00
2018-08-18T05:02:30.059Z,20.00
2018-08-18T05:03:30.015Z,20.00
2018-08-18T05:04:29.945Z,20.00
2018-08-18T05:05:29.960Z,20.00
2018-08-18T05:06:29.971Z,20.00
2018-08-18T05:07:30.076Z,20.00
2018-08-18T05:08:29.989Z,20.00
2018-08-18T05:09:30.003Z,20.00
2018-08-18T05:10:30.021Z,20.00
2018-08-18T05:11:30.071Z,20.00
2018-08-18T05:12:30.135Z,20.00
2018-08-18T05:13:30.053Z,20.00
2018-08-18T05:14:30.064Z,20.00
2018-08-18T05:15:30.075Z,20.00
2018-08-18T05:16:30.078Z,20.00
2018-08-18T05:17:30.243Z,20.00
2018-08-18T05:18:30.109Z,20.00
2018-08-18T05:19:30.114Z,20.00
2018-08-18T05:20:30.132Z,20.00
2018-08-18T05:21:30.136Z,20.00
2018-08-18T05:22:30.251Z,20.00
2018-08-18T05:23:30.179Z,20.00
2018-08-18T05:24:30.187Z,20.00
2018-08-18T05:25:30.185Z,20.00
2018-08-18T05:26:30.195Z,20.00
2018-08-18T05:27:30.291Z,20.00
2018-08-18T05:28:30.239Z,20.00
2018-08-18T05:29:30.236Z,20.00
2018-08-18T05:30:30.254Z,20.00
2018-08-18T05:31:30.233Z,20.00
2018-08-18T05:32:30.343Z,20.00
2018-08-18T05:33:30.282Z,20.00
2018-08-18T05:34:30.286Z,20.00
2018-08-18T05:35:30.299Z,20.00
2018-08-18T05:36:30.367Z,20.00
2018-08-18T05:37:30.401Z,20.00
2018-08-18T05:38:30.328Z,20.00
2018-08-18T05:39:30.323Z,20.00
2018-08-18T05:40:30.330Z,20.00
2018-08-18T05:41:30.367Z,20.00
2018-08-18T05:42:30.483Z,20.00
2018-08-18T05:43:30.395Z,20.00
2018-08-18T05:44:30.379Z,20.00
2018-08-18T05:45:30.408Z,20.00
2018-08-18T05:46:30.420Z,20.00
2018-08-18T05:47:30.569Z,20.00
2018-08-18T05:48:30.429Z,20.00
2018-08-18T05:49:30.448Z,20.00
2018-08-18T05:50:30.460Z,20.00
2018-08-18T05:51:30.472Z,20.00
2018-08-18T05:52:30.592Z,20.00
2018-08-18T05:53:30.505Z,20.00
2018-08-18T05:54:30.509Z,20.00
2018-08-18T05:55:30.525Z,20.00
2018-08-18T05:56:30.542Z,20.00
2018-08-18T05:57:30.643Z,20.00
2018-08-18T05:58:30.552Z,20.00
2018-08-18T05:59:30.564Z,20.00
2018-08-18T06:00:30.588Z,20.00
2018-08-18T06:01:30.589Z,20.00
2018-08-18T06:02:30.748Z,20.00
2018-08-18T06:03:30.609Z,20.00
2018-08-18T06:04:30.627Z,20.00
2018-08-18T06:05:30.646Z,20.00
2018-08-18T06:06:30.641Z,20.00
2018-08-18T06:07:30.632Z,20.00
2018-08-18T06:08:30.765Z,20.00
2018-08-18T06:09:30.678Z,20.00
2018-08-18T06:10:30.666Z,20.00
2018-08-18T06:11:30.705Z,20.00
2018-08-18T06:12:30.708Z,20.00
2018-08-18T06:13:30.868Z,20.00
2018-08-18T06:14:30.733Z,20.00
2018-08-18T06:15:30.740Z,20.00
2018-08-18T06:16:30.750Z,20.00
2018-08-18T06:17:30.766Z,20.00
2018-08-18T06:18:30.876Z,20.00
2018-08-18T06:19:30.782Z,20.00
2018-08-18T06:20:30.797Z,20.00
2018-08-18T06:21:30.802Z,20.00
2018-08-18T06:22:30.819Z,20.00
2018-08-18T06:23:30.978Z,20.00
2018-08-18T06:24:30.848Z,20.00
2018-08-18T06:25:30.852Z,20.00
2018-08-18T06:26:30.859Z,20.00
2018-08-18T06:27:30.874Z,20.00
2018-08-18T06:28:30.977Z,20.00
2018-08-18T06:29:30.901Z,20.00
2018-08-18T06:30:30.905Z,20.00
2018-08-18T06:31:30.922Z,20.00
2018-08-18T06:32:30.908Z,20.00
2018-08-18T06:33:31.089Z,20.00
2018-08-18T06:34:30.993Z,20.00
2018-08-18T06:35:30.956Z,20.00
2018-08-18T06:36:30.959Z,20.00
2018-08-18T06:37:30.980Z,20.00
2018-08-18T06:38:31.096Z,20.00
2018-08-18T06:39:31.003Z,20.00
2018-08-18T06:40:30.992Z,20.00
2018-08-18T06:41:31.090Z,20.00
2018-08-18T06:42:31.036Z,20.00
2018-08-18T06:43:31.147Z,20.00
2018-08-18T06:44:31.040Z,20.00
2018-08-18T06:45:31.070Z,20.00
2018-08-18T06:46:31.055Z,20.00
2018-08-18T06:47:31.094Z,20.00
2018-08-18T06:48:31.198Z,20.00
2018-08-18T06:49:31.115Z,20.00
2018-08-18T06:50:31.128Z,20.00
2018-08-18T06:51:31.137Z,20.00
2018-08-18T06:52:31.143Z,20.00
2018-08-18T06:53:31.408Z,20.00
2018-08-18T06:54:31.252Z,20.00
2018-08-18T06:55:31.180Z,20.00
2018-08-18T06:56:31.166Z,20.00
2018-08-18T06:57:31.199Z,20.00
2018-08-18T06:58:31.364Z,20.00
2018-08-18T06:59:31.219Z,20.00
2018-08-18T07:00:31.213Z,20.00
2018-08-18T07:01:31.221Z,20.00
2018-08-18T07:02:31.276Z,20.00
2018-08-18T07:03:31.408Z,20.00
2018-08-18T07:04:31.279Z,20.00
2018-08-18T07:05:31.282Z,20.00
2018-08-18T07:06:31.276Z,20.00
2018-08-18T07:07:31.302Z,20.00
2018-08-18T07:08:31.462Z,20.00
2018-08-18T07:09:31.328Z,20.00
2018-08-18T07:10:31.330Z,20.00
2018-08-18T07:11:31.345Z,20.00
2018-08-18T07:12:31.364Z,20.00
2018-08-18T07:13:31.521Z,20.00
2018-08-18T07:14:31.374Z,20.00
2018-08-18T07:15:31.395Z,20.00
2018-08-18T07:16:31.397Z,20.00
2018-08-18T07:17:31.413Z,20.00
2018-08-18T07:18:31.721Z,20.00
2018-08-18T07:19:31.485Z,20.00
2018-08-18T07:20:31.443Z,20.00
2018-08-18T07:21:31.453Z,20.00
2018-08-18T07:22:31.466Z,20.00
2018-08-18T07:23:31.477Z,20.00
2018-08-18T07:24:31.737Z,20.00
2018-08-18T07:25:31.503Z,20.00
2018-08-18T07:26:31.505Z,20.00
2018-08-18T07:27:31.515Z,20.00
2018-08-18T07:28:31.566Z,20.00
2018-08-18T07:29:31.542Z,20.00
2018-08-18T07:30:31.651Z,20.00
2018-08-18T07:31:31.556Z,20.00
2018-08-18T07:32:31.565Z,20.00
2018-08-18T07:33:31.575Z,20.00
2018-08-18T07:34:31.592Z,20.00
2018-08-18T07:35:31.602Z,20.00
2018-08-18T07:36:31.761Z,20.00
2018-08-18T07:37:31.675Z,20.00
2018-08-18T07:38:31.635Z,20.00
2018-08-18T07:39:31.631Z,20.00
2018-08-18T07:40:31.657Z,20.00
2018-08-18T07:41:31.766Z,20.00
2018-08-18T07:42:31.678Z,20.00
2018-08-18T07:43:31.680Z,20.00
2018-08-18T07:44:31.725Z,20.00
2018-08-18T07:45:31.706Z,20.00
2018-08-18T07:46:31.860Z,20.00
2018-08-18T07:47:31.733Z,20.00
2018-08-18T07:48:31.762Z,20.00
2018-08-18T07:49:31.752Z,20.00
2018-08-18T07:50:31.757Z,20.00
2018-08-18T07:51:31.923Z,20.00
2018-08-18T07:52:31.783Z,20.00
2018-08-18T07:53:31.803Z,20.00
2018-08-18T07:54:31.804Z,20.00
2018-08-18T07:55:31.808Z,20.00
2018-08-18T07:56:31.917Z,20.00
2018-08-18T07:57:31.837Z,20.00
2018-08-18T07:58:31.841Z,20.00
2018-08-18T07:59:31.856Z,20.00
2018-08-18T08:00:31.865Z,20.00
2018-08-18T08:01:32.008Z,20.00
2018-08-18T08:02:31.885Z,20.00
2018-08-18T08:03:31.896Z,20.00
2018-08-18T08:04:31.886Z,20.00
2018-08-18T08:05:31.946Z,20.00
2018-08-18T08:06:32.077Z,20.00
2018-08-18T08:07:31.940Z,20.00
2018-08-18T08:08:31.950Z,20.00
2018-08-18T08:09:31.956Z,20.00
2018-08-18T08:10:31.974Z,20.00
2018-08-18T08:11:32.230Z,20.00
2018-08-18T08:12:32.056Z,20.00
2018-08-18T08:13:32.008Z,20.00
2018-08-18T08:14:31.997Z,20.00
2018-08-18T08:15:32.030Z,20.00
2018-08-18T08:16:32.185Z,20.00
2018-08-18T08:17:32.047Z,20.00
2018-08-18T08:18:32.063Z,20.00
2018-08-18T08:19:32.078Z,20.00
2018-08-18T08:20:32.084Z,20.00
2018-08-18T08:21:32.223Z,20.00
2018-08-18T08:22:32.112Z,20.00
2018-08-18T08:23:32.112Z,20.00
2018-08-18T08:24:32.127Z,20.00
2018-08-18T08:25:32.113Z,20.00
2018-08-18T08:26:32.277Z,20.00
2018-08-18T08:27:32.159Z,20.00
2018-08-18T08:28:32.179Z,20.00
2018-08-18T08:29:32.223Z,20.00
2018-08-18T08:30:32.185Z,20.00
2018-08-18T08:31:32.297Z,20.00
2018-08-18T08:32:32.207Z,20.00
2018-08-18T08:33:32.229Z,20.00
2018-08-18T08:34:32.235Z,20.00
2018-08-18T08:35:32.250Z,20.00
2018-08-18T08:36:32.332Z,20.00
2018-08-18T08:37:32.262Z,20.00
2018-08-18T08:38:32.281Z,20.00
2018-08-18T08:39:32.291Z,20.00
2018-08-18T08:40:32.298Z,20.00
2018-08-18T08:41:32.459Z,20.00
2018-08-18T08:42:32.323Z,20.00
2018-08-18T08:43:32.312Z,20.00
2018-08-18T08:44:32.343Z,20.00
2018-08-18T08:45:32.352Z,20.00
2018-08-18T08:46:32.513Z,20.00
2018-08-18T08:47:32.381Z,20.00
2018-08-18T08:48:32.608Z,20.00
2018-08-18T08:49:32.399Z,20.00
2018-08-18T08:50:32.403Z,20.00
2018-08-18T08:51:32.573Z,20.00
2018-08-18T08:52:32.423Z,20.00
2018-08-18T08:53:32.622Z,20.00
2018-08-18T08:54:32.449Z,20.00
2018-08-18T08:55:32.441Z,20.00
2018-08-18T08:56:32.770Z,20.00
2018-08-18T08:57:32.481Z,20.00
2018-08-18T08:58:32.495Z,20.00
2018-08-18T08:59:32.505Z,20.00
2018-08-18T09:00:32.493Z,20.00
2018-08-18T09:01:32.675Z,20.00
2018-08-18T09:02:32.533Z,20.00
2018-08-18T09:03:32.546Z,20.00
2018-08-18T09:04:32.562Z,20.00
2018-08-18T09:05:32.550Z,20.00
2018-08-18T09:06:32.578Z,24.00
2018-08-18T09:07:32.685Z,24.00
2018-08-18T09:08:32.578Z,24.00
2018-08-18T09:09:32.616Z,20.00
2018-08-18T09:10:32.631Z,24.00
2018-08-18T09:11:32.617Z,24.00
2018-08-18T09:12:32.642Z,28.00
2018-08-18T09:13:32.814Z,28.00
2018-08-18T09:14:32.660Z,28.00
2018-08-18T09:15:32.685Z,32.00
2018-08-18T09:16:32.663Z,32.00
2018-08-18T09:17:32.683Z,36.00
2018-08-18T09:18:32.866Z,40.00
2018-08-18T09:19:32.715Z,44.00
2018-08-18T09:20:32.725Z,48.00
2018-08-18T09:21:32.740Z,52.00
2018-08-18T09:22:32.954Z,60.00
2018-08-18T09:23:32.859Z,68.00
2018-08-18T09:24:32.768Z,76.00
2018-08-18T09:25:32.780Z,88.00
2018-08-18T09:26:32.811Z,104.00
2018-08-18T09:27:32.805Z,116.00
2018-08-18T09:28:32.912Z,128.00
2018-08-18T09:29:32.827Z,144.00
2018-08-18T09:30:32.850Z,148.00
2018-08-18T09:31:32.848Z,172.00
2018-08-18T09:32:32.856Z,192.00
2018-08-18T09:33:33.022Z,220.00
2018-08-18T09:34:32.890Z,256.00
2018-08-18T09:35:32.894Z,284.00
2018-08-18T09:36:32.902Z,308.00
2018-08-18T09:37:32.916Z,332.00
2018-08-18T09:38:33.009Z,380.00
2018-08-18T09:39:32.936Z,444.00
2018-08-18T09:40:32.949Z,460.00
2018-08-18T09:41:32.941Z,476.00
2018-08-18T09:42:32.950Z,496.00
2018-08-18T09:43:33.076Z,552.00
2018-08-18T09:44:32.987Z,652.00
2018-08-18T09:45:33.004Z,768.00
2018-08-18T09:46:33.021Z,848.00
2018-08-18T09:47:33.028Z,1032.00
2018-08-18T09:48:33.135Z,1216.00
2018-08-18T09:49:33.026Z,1276.00
2018-08-18T09:50:33.061Z,1320.00
2018-08-18T09:51:33.070Z,1372.00
2018-08-18T09:52:33.110Z,1616.00
2018-08-18T09:53:33.240Z,1956.00
2018-08-18T09:54:33.104Z,2008.00
2018-08-18T09:55:33.114Z,2064.00
2018-08-18T09:56:33.127Z,2364.00
2018-08-18T09:57:33.135Z,2476.00
2018-08-18T09:58:33.300Z,2244.00
2018-08-18T09:59:33.181Z,2260.00
2018-08-18T10:00:33.173Z,2364.00
2018-08-18T10:01:33.158Z,2472.00
2018-08-18T10:02:33.174Z,2592.00
2018-08-18T10:03:33.339Z,2696.00
2018-08-18T10:04:33.209Z,2812.00
2018-08-18T10:05:33.233Z,2884.00
2018-08-18T10:06:33.262Z,2988.00
2018-08-18T10:07:33.251Z,3128.00
2018-08-18T10:08:33.412Z,3268.00
2018-08-18T10:09:33.273Z,3484.00
2018-08-18T10:10:33.282Z,3760.00
2018-08-18T10:11:33.281Z,4028.00
2018-08-18T10:12:33.300Z,4164.00
2018-08-18T10:13:33.411Z,4316.00
2018-08-18T10:14:33.326Z,4580.00
2018-08-18T10:15:33.337Z,4864.00
2018-08-18T10:16:33.349Z,5168.00
2018-08-18T10:17:33.356Z,5296.00
2018-08-18T10:18:33.476Z,5204.00
2018-08-18T10:19:33.383Z,3696.00
2018-08-18T10:20:33.372Z,3344.00
2018-08-18T10:21:33.409Z,3764.00
2018-08-18T10:22:33.418Z,4700.00
2018-08-18T10:23:33.534Z,5024.00
2018-08-18T10:24:33.449Z,5568.00
2018-08-18T10:25:33.454Z,5528.00
2018-08-18T10:26:33.467Z,4944.00
2018-08-18T10:27:33.531Z,4204.00
2018-08-18T10:28:33.595Z,4420.00
2018-08-18T10:29:33.495Z,4468.00
2018-08-18T10:30:33.515Z,6036.00
2018-08-18T10:31:33.526Z,7896.00
2018-08-18T10:32:33.538Z,8192.00
2018-08-18T10:33:33.699Z,5496.00
2018-08-18T10:34:33.572Z,5124.00
2018-08-18T10:35:33.576Z,4612.00
2018-08-18T10:36:33.584Z,4168.00
2018-08-18T10:37:33.595Z,4324.00
2018-08-18T10:38:33.592Z,4700.00
2018-08-18T10:39:33.768Z,4836.00
2018-08-18T10:40:33.613Z,5988.00
2018-08-18T10:41:33.637Z,7236.00
2018-08-18T10:42:33.663Z,5712.00
2018-08-18T10:43:33.669Z,5500.00
2018-08-18T10:44:33.836Z,5448.00
2018-08-18T10:45:33.689Z,5288.00
2018-08-18T10:46:33.706Z,6392.00
2018-08-18T10:47:33.723Z,6592.00
2018-08-18T10:48:33.726Z,8556.00
2018-08-18T10:49:33.992Z,6356.00
2018-08-18T10:50:33.741Z,6212.00
2018-08-18T10:51:33.794Z,7904.00
2018-08-18T10:52:33.777Z,7948.00
2018-08-18T10:53:33.786Z,8864.00
2018-08-18T10:54:33.881Z,11712.00
2018-08-18T10:55:33.817Z,10184.00
2018-08-18T10:56:33.826Z,8372.00
2018-08-18T10:57:33.846Z,9172.00
2018-08-18T10:58:33.925Z,11368.00
2018-08-18T10:59:33.965Z,11560.00
2018-08-18T11:00:33.875Z,11036.00
2018-08-18T11:01:33.901Z,8312.00
2018-08-18T11:02:33.903Z,10068.00
2018-08-18T11:03:33.914Z,8896.00
2018-08-18T11:04:34.079Z,9176.00
2018-08-18T11:05:33.942Z,6576.00
2018-08-18T11:06:33.952Z,8604.00
2018-08-18T11:07:33.954Z,11736.00
2018-08-18T11:08:33.980Z,10964.00
2018-08-18T11:09:34.148Z,11688.00
2018-08-18T11:10:34.003Z,10544.00
2018-08-18T11:11:34.006Z,14760.00
2018-08-18T11:12:34.068Z,14576.00
2018-08-18T11:13:34.045Z,13316.00
2018-08-18T11:14:34.211Z,13228.00
2018-08-18T11:15:34.079Z,13440.00
2018-08-18T11:16:34.090Z,12832.00
2018-08-18T11:17:34.109Z,12696.00
2018-08-18T11:18:34.105Z,6820.00
2018-08-18T11:19:34.278Z,5536.00
2018-08-18T11:20:34.149Z,6888.00
2018-08-18T11:21:34.137Z,6072.00
2018-08-18T11:22:34.174Z,5908.00
2018-08-18T11:23:34.173Z,6572.00
2018-08-18T11:24:34.347Z,6404.00
2018-08-18T11:25:34.215Z,5460.00
2018-08-18T11:26:34.227Z,5268.00
2018-08-18T11:27:34.246Z,5832.00
2018-08-18T11:28:34.382Z,6528.00
2018-08-18T11:29:34.419Z,7532.00
2018-08-18T11:30:34.284Z,8628.00
2018-08-18T11:31:34.295Z,9524.00
2018-08-18T11:32:34.308Z,8480.00
2018-08-18T11:33:34.362Z,8860.00
2018-08-18T11:34:34.423Z,8372.00
2018-08-18T11:35:34.553Z,7920.00
2018-08-18T11:36:34.367Z,7832.00
2018-08-18T11:37:34.382Z,8516.00
2018-08-18T11:38:34.369Z,7896.00
2018-08-18T11:39:34.511Z,8132.00
2018-08-18T11:40:34.467Z,7460.00
2018-08-18T11:41:34.454Z,7296.00
2018-08-18T11:42:34.652Z,7252.00
2018-08-18T11:43:34.464Z,6964.00
2018-08-18T11:44:34.556Z,7484.00
2018-08-18T11:45:34.487Z,8404.00
2018-08-18T11:46:34.505Z,8032.00
2018-08-18T11:47:34.524Z,6272.00
2018-08-18T11:48:34.535Z,6564.00
2018-08-18T11:49:34.626Z,6428.00
2018-08-18T11:50:34.539Z,6976.00
2018-08-18T11:51:34.571Z,7596.00
2018-08-18T11:52:34.565Z,6524.00
2018-08-18T11:53:34.588Z,6244.00
2018-08-18T11:54:34.740Z,5596.00
2018-08-18T11:55:34.630Z,5708.00
2018-08-18T11:56:34.639Z,5372.00
2018-08-18T11:57:34.648Z,4940.00
2018-08-18T11:58:34.669Z,4620.00
2018-08-18T11:59:34.826Z,4696.00
2018-08-18T12:00:34.695Z,4712.00
2018-08-18T12:01:34.691Z,4796.00
2018-08-18T12:02:34.718Z,5468.00
2018-08-18T12:03:34.731Z,5736.00
2018-08-18T12:04:34.826Z,5832.00
2018-08-18T12:05:34.756Z,5756.00
2018-08-18T12:06:34.781Z,5908.00
2018-08-18T12:07:34.784Z,6180.00
2018-08-18T12:08:34.800Z,7416.00
2018-08-18T12:09:34.915Z,6576.00
2018-08-18T12:10:34.843Z,7408.00
2018-08-18T12:11:34.839Z,9464.00
2018-08-18T12:12:34.850Z,9488.00
2018-08-18T12:13:34.866Z,9248.00
2018-08-18T12:14:34.982Z,8392.00
2018-08-18T12:15:34.892Z,8784.00
2018-08-18T12:16:34.883Z,9788.00
2018-08-18T12:17:34.923Z,8932.00
2018-08-18T12:18:34.929Z,8936.00
2018-08-18T12:19:35.099Z,9348.00
2018-08-18T12:20:34.996Z,10580.00
2018-08-18T12:21:34.952Z,11284.00
2018-08-18T12:22:34.992Z,12440.00
2018-08-18T12:23:34.992Z,12128.00
2018-08-18T12:24:35.146Z,13088.00
2018-08-18T12:25:35.025Z,15476.00
2018-08-18T12:26:35.045Z,15704.00
2018-08-18T12:27:35.039Z,23552.00
2018-08-18T12:28:35.069Z,13104.00
2018-08-18T12:29:35.243Z,12228.00
2018-08-18T12:30:35.100Z,14572.00
2018-08-18T12:31:35.112Z,13400.00
2018-08-18T12:32:35.127Z,14004.00
2018-08-18T12:33:35.138Z,13684.00
2018-08-18T12:34:35.250Z,15100.00
2018-08-18T12:35:35.172Z,15308.00
2018-08-18T12:36:35.225Z,16188.00
2018-08-18T12:37:35.358Z,11972.00
2018-08-18T12:38:35.211Z,12872.00
2018-08-18T12:39:35.482Z,16356.00